sensor_id;sensor_type;location;lat;lon;timestamp;P1;durP1;ratioP1;P2;durP2;ratioP2
12088;SDS011;6107;49.078;8.578;2023-07-31T00:00:05;3.47;;;1.98;;
12088;SDS011;6107;49.078;8.578;2023-07-31T00:02:33;4.70;;;1.80;;
12088;SDS011;6107;49.078;8.578;2023-07-31T00:04:59;4.93;;;2.20;;
12088;SDS011;6107;49.078;8.578;2023-07-31T00:07:25;4.38;;;1.83;;
12088;SDS011;6107;49.078;8.578;2023-07-31T00:09:50;6.85;;;2.35;;
12088;SDS011;6107;49.078;8.578;2023-07-31T00:12:16;7.00;;;1.88;;
12088;SDS011;6107;49.078;8.578;2023-07-31T00:14:41;3.55;;;2.03;;
12088;SDS011;6107;49.078;8.578;2023-07-31T00:17:07;4.38;;;1.98;;
12088;SDS011;6107;49.078;8.578;2023-07-31T00:19:32;3.78;;;1.90;;
12088;SDS011;6107;49.078;8.578;2023-07-31T00:21:58;4.75;;;1.88;;
12088;SDS011;6107;49.078;8.578;2023-07-31T00:24:23;6.00;;;1.92;;
12088;SDS011;6107;49.078;8.578;2023-07-31T00:26:49;6.72;;;1.85;;
12088;SDS011;6107;49.078;8.578;2023-07-31T00:29:15;5.75;;;2.10;;
12088;SDS011;6107;49.078;8.578;2023-07-31T00:31:40;4.22;;;2.20;;
12088;SDS011;6107;49.078;8.578;2023-07-31T00:34:05;5.10;;;2.50;;
12088;SDS011;6107;49.078;8.578;2023-07-31T00:36:31;4.30;;;2.00;;
12088;SDS011;6107;49.078;8.578;2023-07-31T00:38:56;4.05;;;1.88;;
12088;SDS011;6107;49.078;8.578;2023-07-31T00:41:22;4.47;;;1.80;;
12088;SDS011;6107;49.078;8.578;2023-07-31T00:43:48;5.35;;;2.03;;
12088;SDS011;6107;49.078;8.578;2023-07-31T00:46:13;3.28;;;1.88;;
12088;SDS011;6107;49.078;8.578;2023-07-31T00:48:39;5.90;;;2.10;;
12088;SDS011;6107;49.078;8.578;2023-07-31T00:51:05;5.25;;;2.03;;
12088;SDS011;6107;49.078;8.578;2023-07-31T00:53:32;3.65;;;1.98;;
12088;SDS011;6107;49.078;8.578;2023-07-31T00:55:58;4.30;;;1.70;;
12088;SDS011;6107;49.078;8.578;2023-07-31T00:58:23;4.55;;;1.98;;
12088;SDS011;6107;49.078;8.578;2023-07-31T01:00:49;4.18;;;2.08;;
12088;SDS011;6107;49.078;8.578;2023-07-31T01:03:15;5.38;;;2.15;;
12088;SDS011;6107;49.078;8.578;2023-07-31T01:06:01;6.43;;;2.10;;
12088;SDS011;6107;49.078;8.578;2023-07-31T01:08:41;4.55;;;1.80;;
12088;SDS011;6107;49.078;8.578;2023-07-31T01:11:25;4.38;;;2.13;;
12088;SDS011;6107;49.078;8.578;2023-07-31T01:13:52;3.65;;;1.80;;
12088;SDS011;6107;49.078;8.578;2023-07-31T01:16:19;5.70;;;2.30;;
12088;SDS011;6107;49.078;8.578;2023-07-31T01:18:44;4.22;;;2.25;;
12088;SDS011;6107;49.078;8.578;2023-07-31T01:32:21;4.28;;;2.00;;
12088;SDS011;6107;49.078;8.578;2023-07-31T01:34:50;5.10;;;1.58;;
12088;SDS011;6107;49.078;8.578;2023-07-31T01:37:17;4.22;;;2.10;;
12088;SDS011;6107;49.078;8.578;2023-07-31T01:39:42;4.72;;;2.08;;
12088;SDS011;6107;49.078;8.578;2023-07-31T01:42:08;6.15;;;1.88;;
12088;SDS011;6107;49.078;8.578;2023-07-31T01:44:33;8.13;;;2.13;;
12088;SDS011;6107;49.078;8.578;2023-07-31T01:46:59;6.15;;;2.03;;
12088;SDS011;6107;49.078;8.578;2023-07-31T01:49:25;3.10;;;2.00;;
12088;SDS011;6107;49.078;8.578;2023-07-31T01:51:51;4.90;;;1.80;;
12088;SDS011;6107;49.078;8.578;2023-07-31T01:54:16;5.43;;;1.90;;
12088;SDS011;6107;49.078;8.578;2023-07-31T01:56:42;6.45;;;2.78;;
12088;SDS011;6107;49.078;8.578;2023-07-31T01:59:07;4.50;;;1.80;;
12088;SDS011;6107;49.078;8.578;2023-07-31T02:01:33;3.55;;;2.00;;
12088;SDS011;6107;49.078;8.578;2023-07-31T02:03:58;3.75;;;2.03;;
12088;SDS011;6107;49.078;8.578;2023-07-31T02:06:24;3.85;;;2.28;;
12088;SDS011;6107;49.078;8.578;2023-07-31T02:08:49;6.35;;;2.00;;
12088;SDS011;6107;49.078;8.578;2023-07-31T02:11:15;4.10;;;1.80;;
12088;SDS011;6107;49.078;8.578;2023-07-31T02:13:40;3.08;;;1.73;;
12088;SDS011;6107;49.078;8.578;2023-07-31T02:16:06;4.82;;;1.85;;
12088;SDS011;6107;49.078;8.578;2023-07-31T02:18:31;6.50;;;2.38;;
12088;SDS011;6107;49.078;8.578;2023-07-31T02:20:57;4.97;;;2.15;;
12088;SDS011;6107;49.078;8.578;2023-07-31T02:23:22;5.03;;;1.85;;
12088;SDS011;6107;49.078;8.578;2023-07-31T02:25:48;3.50;;;2.10;;
12088;SDS011;6107;49.078;8.578;2023-07-31T02:28:13;3.00;;;1.70;;
12088;SDS011;6107;49.078;8.578;2023-07-31T02:30:39;4.63;;;2.20;;
12088;SDS011;6107;49.078;8.578;2023-07-31T02:33:05;6.00;;;1.90;;
12088;SDS011;6107;49.078;8.578;2023-07-31T02:35:30;4.70;;;1.90;;
12088;SDS011;6107;49.078;8.578;2023-07-31T02:37:56;4.55;;;1.80;;
12088;SDS011;6107;49.078;8.578;2023-07-31T02:40:21;3.15;;;1.80;;
12088;SDS011;6107;49.078;8.578;2023-07-31T02:42:48;6.13;;;1.73;;
12088;SDS011;6107;49.078;8.578;2023-07-31T02:45:13;5.80;;;1.85;;
12088;SDS011;6107;49.078;8.578;2023-07-31T02:47:39;3.33;;;2.10;;
12088;SDS011;6107;49.078;8.578;2023-07-31T02:50:04;5.38;;;2.22;;
12088;SDS011;6107;49.078;8.578;2023-07-31T02:52:31;4.63;;;1.90;;
12088;SDS011;6107;49.078;8.578;2023-07-31T02:54:57;3.85;;;1.65;;
12088;SDS011;6107;49.078;8.578;2023-07-31T02:57:23;3.80;;;1.88;;
12088;SDS011;6107;49.078;8.578;2023-07-31T02:59:48;4.85;;;1.55;;
12088;SDS011;6107;49.078;8.578;2023-07-31T03:02:14;4.30;;;1.90;;
12088;SDS011;6107;49.078;8.578;2023-07-31T03:04:39;2.47;;;1.73;;
12088;SDS011;6107;49.078;8.578;2023-07-31T03:07:05;4.18;;;1.92;;
12088;SDS011;6107;49.078;8.578;2023-07-31T03:09:30;4.22;;;1.95;;
12088;SDS011;6107;49.078;8.578;2023-07-31T03:11:56;2.97;;;1.60;;
12088;SDS011;6107;49.078;8.578;2023-07-31T03:14:22;3.65;;;1.75;;
12088;SDS011;6107;49.078;8.578;2023-07-31T03:16:47;5.38;;;2.00;;
12088;SDS011;6107;49.078;8.578;2023-07-31T03:19:14;4.60;;;1.95;;
12088;SDS011;6107;49.078;8.578;2023-07-31T03:21:39;6.32;;;2.00;;
12088;SDS011;6107;49.078;8.578;2023-07-31T03:24:05;5.00;;;2.13;;
12088;SDS011;6107;49.078;8.578;2023-07-31T03:26:31;4.60;;;2.10;;
12088;SDS011;6107;49.078;8.578;2023-07-31T03:28:57;6.97;;;1.85;;
12088;SDS011;6107;49.078;8.578;2023-07-31T03:31:22;5.95;;;2.10;;
12088;SDS011;6107;49.078;8.578;2023-07-31T03:33:48;5.45;;;2.17;;
12088;SDS011;6107;49.078;8.578;2023-07-31T03:36:13;4.28;;;1.80;;
12088;SDS011;6107;49.078;8.578;2023-07-31T03:38:39;3.20;;;1.83;;
12088;SDS011;6107;49.078;8.578;2023-07-31T03:41:04;3.70;;;2.05;;
12088;SDS011;6107;49.078;8.578;2023-07-31T03:43:31;4.85;;;2.10;;
12088;SDS011;6107;49.078;8.578;2023-07-31T03:45:58;5.75;;;2.00;;
12088;SDS011;6107;49.078;8.578;2023-07-31T03:48:24;2.67;;;1.55;;
12088;SDS011;6107;49.078;8.578;2023-07-31T03:50:50;3.80;;;1.98;;
12088;SDS011;6107;49.078;8.578;2023-07-31T03:53:15;3.30;;;1.70;;
12088;SDS011;6107;49.078;8.578;2023-07-31T03:55:41;5.82;;;2.05;;
12088;SDS011;6107;49.078;8.578;2023-07-31T03:58:06;2.75;;;1.83;;
12088;SDS011;6107;49.078;8.578;2023-07-31T04:00:32;5.63;;;2.20;;
12088;SDS011;6107;49.078;8.578;2023-07-31T04:02:58;3.45;;;2.10;;
12088;SDS011;6107;49.078;8.578;2023-07-31T04:05:23;4.45;;;2.00;;
12088;SDS011;6107;49.078;8.578;2023-07-31T04:07:49;2.65;;;1.80;;
12088;SDS011;6107;49.078;8.578;2023-07-31T04:10:14;2.97;;;1.63;;
12088;SDS011;6107;49.078;8.578;2023-07-31T04:12:40;5.15;;;2.20;;
12088;SDS011;6107;49.078;8.578;2023-07-31T04:15:06;5.30;;;2.47;;
12088;SDS011;6107;49.078;8.578;2023-07-31T04:17:32;4.45;;;1.67;;
12088;SDS011;6107;49.078;8.578;2023-07-31T04:19:57;2.78;;;1.80;;
12088;SDS011;6107;49.078;8.578;2023-07-31T04:22:23;4.22;;;2.20;;
12088;SDS011;6107;49.078;8.578;2023-07-31T04:24:48;3.10;;;1.77;;
12088;SDS011;6107;49.078;8.578;2023-07-31T04:27:14;6.07;;;1.95;;
12088;SDS011;6107;49.078;8.578;2023-07-31T04:29:39;3.92;;;1.67;;
12088;SDS011;6107;49.078;8.578;2023-07-31T04:32:07;4.18;;;2.05;;
12088;SDS011;6107;49.078;8.578;2023-07-31T04:34:33;5.20;;;2.03;;
12088;SDS011;6107;49.078;8.578;2023-07-31T04:36:58;4.28;;;1.70;;
12088;SDS011;6107;49.078;8.578;2023-07-31T04:39:24;6.15;;;2.05;;
12088;SDS011;6107;49.078;8.578;2023-07-31T04:41:49;5.60;;;2.03;;
12088;SDS011;6107;49.078;8.578;2023-07-31T04:44:15;5.55;;;2.10;;
12088;SDS011;6107;49.078;8.578;2023-07-31T04:46:40;5.88;;;2.13;;
12088;SDS011;6107;49.078;8.578;2023-07-31T04:49:06;3.15;;;1.90;;
12088;SDS011;6107;49.078;8.578;2023-07-31T04:51:31;6.18;;;1.98;;
12088;SDS011;6107;49.078;8.578;2023-07-31T04:53:57;4.53;;;2.03;;
12088;SDS011;6107;49.078;8.578;2023-07-31T04:56:23;3.90;;;1.85;;
12088;SDS011;6107;49.078;8.578;2023-07-31T04:58:48;5.65;;;1.90;;
12088;SDS011;6107;49.078;8.578;2023-07-31T05:01:14;3.75;;;1.70;;
12088;SDS011;6107;49.078;8.578;2023-07-31T05:03:39;4.43;;;2.03;;
12088;SDS011;6107;49.078;8.578;2023-07-31T05:06:05;4.40;;;1.90;;
12088;SDS011;6107;49.078;8.578;2023-07-31T05:08:30;3.47;;;1.80;;
12088;SDS011;6107;49.078;8.578;2023-07-31T05:10:56;5.65;;;2.10;;
12088;SDS011;6107;49.078;8.578;2023-07-31T05:13:21;4.30;;;2.05;;
12088;SDS011;6107;49.078;8.578;2023-07-31T05:15:47;6.97;;;2.20;;
12088;SDS011;6107;49.078;8.578;2023-07-31T05:18:14;2.60;;;1.80;;
12088;SDS011;6107;49.078;8.578;2023-07-31T05:20:40;4.80;;;2.00;;
12088;SDS011;6107;49.078;8.578;2023-07-31T05:23:06;3.38;;;2.00;;
12088;SDS011;6107;49.078;8.578;2023-07-31T05:25:31;4.90;;;1.80;;
12088;SDS011;6107;49.078;8.578;2023-07-31T05:27:57;2.85;;;2.20;;
12088;SDS011;6107;49.078;8.578;2023-07-31T05:30:22;4.45;;;2.17;;
12088;SDS011;6107;49.078;8.578;2023-07-31T05:32:48;5.07;;;1.90;;
12088;SDS011;6107;49.078;8.578;2023-07-31T05:35:13;3.25;;;2.00;;
12088;SDS011;6107;49.078;8.578;2023-07-31T05:37:39;6.28;;;1.95;;
12088;SDS011;6107;49.078;8.578;2023-07-31T05:40:05;4.05;;;1.90;;
12088;SDS011;6107;49.078;8.578;2023-07-31T05:42:31;3.40;;;2.10;;
12088;SDS011;6107;49.078;8.578;2023-07-31T05:44:56;4.85;;;2.10;;
12088;SDS011;6107;49.078;8.578;2023-07-31T05:47:22;6.40;;;2.22;;
12088;SDS011;6107;49.078;8.578;2023-07-31T05:49:48;5.97;;;1.98;;
12088;SDS011;6107;49.078;8.578;2023-07-31T05:52:14;6.30;;;2.15;;
12088;SDS011;6107;49.078;8.578;2023-07-31T05:54:40;4.35;;;1.77;;
12088;SDS011;6107;49.078;8.578;2023-07-31T05:57:06;3.10;;;1.90;;
12088;SDS011;6107;49.078;8.578;2023-07-31T05:59:32;3.53;;;2.13;;
12088;SDS011;6107;49.078;8.578;2023-07-31T06:01:58;6.13;;;1.80;;
12088;SDS011;6107;49.078;8.578;2023-07-31T06:04:24;3.97;;;1.98;;
12088;SDS011;6107;49.078;8.578;2023-07-31T06:06:50;3.50;;;2.03;;
12088;SDS011;6107;49.078;8.578;2023-07-31T06:09:16;4.82;;;2.00;;
12088;SDS011;6107;49.078;8.578;2023-07-31T06:11:42;4.72;;;2.20;;
12088;SDS011;6107;49.078;8.578;2023-07-31T06:14:07;4.68;;;1.88;;
12088;SDS011;6107;49.078;8.578;2023-07-31T06:16:33;3.55;;;1.80;;
12088;SDS011;6107;49.078;8.578;2023-07-31T06:18:58;4.38;;;2.30;;
12088;SDS011;6107;49.078;8.578;2023-07-31T06:21:24;8.35;;;2.30;;
12088;SDS011;6107;49.078;8.578;2023-07-31T06:23:49;3.00;;;1.92;;
12088;SDS011;6107;49.078;8.578;2023-07-31T06:26:15;4.75;;;2.03;;
12088;SDS011;6107;49.078;8.578;2023-07-31T06:28:41;5.60;;;2.00;;
12088;SDS011;6107;49.078;8.578;2023-07-31T06:31:06;7.40;;;2.90;;
12088;SDS011;6107;49.078;8.578;2023-07-31T06:33:32;2.72;;;1.90;;
12088;SDS011;6107;49.078;8.578;2023-07-31T06:35:58;4.53;;;1.83;;
12088;SDS011;6107;49.078;8.578;2023-07-31T06:38:24;4.30;;;2.05;;
12088;SDS011;6107;49.078;8.578;2023-07-31T06:40:51;6.07;;;2.20;;
12088;SDS011;6107;49.078;8.578;2023-07-31T06:43:17;3.92;;;2.08;;
12088;SDS011;6107;49.078;8.578;2023-07-31T06:45:43;4.05;;;1.92;;
12088;SDS011;6107;49.078;8.578;2023-07-31T06:48:08;5.63;;;2.00;;
12088;SDS011;6107;49.078;8.578;2023-07-31T06:50:34;4.20;;;2.47;;
12088;SDS011;6107;49.078;8.578;2023-07-31T06:52:59;3.35;;;1.80;;
12088;SDS011;6107;49.078;8.578;2023-07-31T06:55:27;7.18;;;2.25;;
12088;SDS011;6107;49.078;8.578;2023-07-31T06:57:53;3.78;;;1.85;;
12088;SDS011;6107;49.078;8.578;2023-07-31T07:00:20;5.82;;;2.28;;
12088;SDS011;6107;49.078;8.578;2023-07-31T07:02:47;4.53;;;2.33;;
12088;SDS011;6107;49.078;8.578;2023-07-31T07:05:13;5.65;;;2.17;;
12088;SDS011;6107;49.078;8.578;2023-07-31T07:07:39;5.38;;;2.20;;
12088;SDS011;6107;49.078;8.578;2023-07-31T07:10:05;4.80;;;2.10;;
12088;SDS011;6107;49.078;8.578;2023-07-31T07:12:31;6.18;;;2.30;;
12088;SDS011;6107;49.078;8.578;2023-07-31T07:14:58;7.90;;;2.30;;
12088;SDS011;6107;49.078;8.578;2023-07-31T07:17:24;3.20;;;1.85;;
12088;SDS011;6107;49.078;8.578;2023-07-31T07:19:50;3.83;;;1.90;;
12088;SDS011;6107;49.078;8.578;2023-07-31T07:22:16;4.68;;;2.30;;
12088;SDS011;6107;49.078;8.578;2023-07-31T07:24:42;5.57;;;2.40;;
12088;SDS011;6107;49.078;8.578;2023-07-31T07:27:08;5.90;;;2.03;;
12088;SDS011;6107;49.078;8.578;2023-07-31T07:29:34;5.72;;;2.03;;
12088;SDS011;6107;49.078;8.578;2023-07-31T07:31:59;6.28;;;1.98;;
12088;SDS011;6107;49.078;8.578;2023-07-31T07:34:28;5.10;;;2.10;;
12088;SDS011;6107;49.078;8.578;2023-07-31T07:36:54;6.95;;;2.33;;
12088;SDS011;6107;49.078;8.578;2023-07-31T07:39:20;3.85;;;2.08;;
12088;SDS011;6107;49.078;8.578;2023-07-31T07:41:46;5.35;;;2.65;;
12088;SDS011;6107;49.078;8.578;2023-07-31T07:44:12;5.15;;;2.40;;
12088;SDS011;6107;49.078;8.578;2023-07-31T07:46:38;4.72;;;2.38;;
12088;SDS011;6107;49.078;8.578;2023-07-31T07:49:04;5.45;;;2.30;;
12088;SDS011;6107;49.078;8.578;2023-07-31T07:51:30;6.88;;;2.58;;
12088;SDS011;6107;49.078;8.578;2023-07-31T07:53:59;4.78;;;2.10;;
12088;SDS011;6107;49.078;8.578;2023-07-31T07:56:26;6.10;;;2.50;;
12088;SDS011;6107;49.078;8.578;2023-07-31T07:58:52;6.45;;;2.40;;
12088;SDS011;6107;49.078;8.578;2023-07-31T08:01:19;5.68;;;2.35;;
12088;SDS011;6107;49.078;8.578;2023-07-31T08:03:45;4.65;;;2.17;;
12088;SDS011;6107;49.078;8.578;2023-07-31T08:06:11;4.30;;;2.30;;
12088;SDS011;6107;49.078;8.578;2023-07-31T08:08:37;3.90;;;2.30;;
12088;SDS011;6107;49.078;8.578;2023-07-31T08:11:03;4.30;;;2.10;;
12088;SDS011;6107;49.078;8.578;2023-07-31T08:13:29;6.13;;;2.10;;
12088;SDS011;6107;49.078;8.578;2023-07-31T08:15:55;4.82;;;2.00;;
12088;SDS011;6107;49.078;8.578;2023-07-31T08:18:21;6.43;;;3.28;;
12088;SDS011;6107;49.078;8.578;2023-07-31T08:20:47;4.10;;;2.20;;
12088;SDS011;6107;49.078;8.578;2023-07-31T08:23:12;6.28;;;2.40;;
12088;SDS011;6107;49.078;8.578;2023-07-31T08:25:38;4.63;;;2.42;;
12088;SDS011;6107;49.078;8.578;2023-07-31T08:28:04;6.43;;;2.22;;
12088;SDS011;6107;49.078;8.578;2023-07-31T08:30:31;4.10;;;2.40;;
12088;SDS011;6107;49.078;8.578;2023-07-31T08:32:58;5.82;;;2.30;;
12088;SDS011;6107;49.078;8.578;2023-07-31T08:35:24;6.35;;;2.92;;
12088;SDS011;6107;49.078;8.578;2023-07-31T08:37:50;5.50;;;2.20;;
12088;SDS011;6107;49.078;8.578;2023-07-31T08:40:16;4.20;;;2.35;;
12088;SDS011;6107;49.078;8.578;2023-07-31T08:42:45;6.32;;;2.45;;
12088;SDS011;6107;49.078;8.578;2023-07-31T08:45:15;5.00;;;2.42;;
12088;SDS011;6107;49.078;8.578;2023-07-31T08:47:44;4.80;;;2.33;;
12088;SDS011;6107;49.078;8.578;2023-07-31T08:50:14;4.50;;;2.17;;
12088;SDS011;6107;49.078;8.578;2023-07-31T08:52:41;4.40;;;2.33;;
12088;SDS011;6107;49.078;8.578;2023-07-31T08:55:06;4.35;;;2.30;;
12088;SDS011;6107;49.078;8.578;2023-07-31T08:57:37;4.05;;;2.33;;
12088;SDS011;6107;49.078;8.578;2023-07-31T09:00:07;5.65;;;2.50;;
12088;SDS011;6107;49.078;8.578;2023-07-31T09:05:11;7.15;;;2.20;;
12088;SDS011;6107;49.078;8.578;2023-07-31T09:07:40;9.45;;;2.58;;
12088;SDS011;6107;49.078;8.578;2023-07-31T09:10:11;4.70;;;2.70;;
12088;SDS011;6107;49.078;8.578;2023-07-31T09:12:37;4.63;;;2.38;;
12088;SDS011;6107;49.078;8.578;2023-07-31T09:15:04;5.05;;;2.35;;
12088;SDS011;6107;49.078;8.578;2023-07-31T09:17:30;4.15;;;2.40;;
12088;SDS011;6107;49.078;8.578;2023-07-31T09:22:46;4.70;;;2.20;;
12088;SDS011;6107;49.078;8.578;2023-07-31T09:27:57;5.30;;;2.40;;
12088;SDS011;6107;49.078;8.578;2023-07-31T09:30:24;4.15;;;2.20;;
12088;SDS011;6107;49.078;8.578;2023-07-31T09:32:50;6.45;;;2.65;;
12088;SDS011;6107;49.078;8.578;2023-07-31T09:35:20;9.57;;;2.50;;
12088;SDS011;6107;49.078;8.578;2023-07-31T09:37:48;4.82;;;2.47;;
12088;SDS011;6107;49.078;8.578;2023-07-31T09:40:30;4.93;;;2.67;;
12088;SDS011;6107;49.078;8.578;2023-07-31T09:42:59;6.93;;;2.67;;
12088;SDS011;6107;49.078;8.578;2023-07-31T09:45:29;4.80;;;2.33;;
12088;SDS011;6107;49.078;8.578;2023-07-31T09:47:56;4.78;;;2.38;;
12088;SDS011;6107;49.078;8.578;2023-07-31T09:50:22;3.92;;;2.60;;
12088;SDS011;6107;49.078;8.578;2023-07-31T09:52:49;7.10;;;2.85;;
12088;SDS011;6107;49.078;8.578;2023-07-31T09:55:15;4.25;;;2.35;;
12088;SDS011;6107;49.078;8.578;2023-07-31T09:57:45;7.15;;;3.00;;
12088;SDS011;6107;49.078;8.578;2023-07-31T10:00:12;8.27;;;2.83;;
12088;SDS011;6107;49.078;8.578;2023-07-31T10:02:40;6.18;;;2.75;;
12088;SDS011;6107;49.078;8.578;2023-07-31T10:05:06;6.35;;;2.60;;
12088;SDS011;6107;49.078;8.578;2023-07-31T10:07:42;6.60;;;2.70;;
12088;SDS011;6107;49.078;8.578;2023-07-31T10:10:13;5.80;;;2.95;;
12088;SDS011;6107;49.078;8.578;2023-07-31T10:12:40;5.40;;;2.53;;
12088;SDS011;6107;49.078;8.578;2023-07-31T10:15:06;6.30;;;2.67;;
12088;SDS011;6107;49.078;8.578;2023-07-31T10:17:34;6.97;;;2.58;;
12088;SDS011;6107;49.078;8.578;2023-07-31T10:20:02;5.15;;;2.45;;
12088;SDS011;6107;49.078;8.578;2023-07-31T10:22:31;8.02;;;2.67;;
12088;SDS011;6107;49.078;8.578;2023-07-31T10:24:58;6.97;;;2.53;;
12088;SDS011;6107;49.078;8.578;2023-07-31T10:27:25;7.18;;;2.40;;
12088;SDS011;6107;49.078;8.578;2023-07-31T10:29:52;5.45;;;2.58;;
12088;SDS011;6107;49.078;8.578;2023-07-31T10:32:22;5.15;;;2.70;;
12088;SDS011;6107;49.078;8.578;2023-07-31T10:34:49;4.75;;;2.60;;
12088;SDS011;6107;49.078;8.578;2023-07-31T10:40:00;5.18;;;2.70;;
12088;SDS011;6107;49.078;8.578;2023-07-31T10:42:52;6.03;;;2.80;;
12088;SDS011;6107;49.078;8.578;2023-07-31T10:45:31;7.00;;;2.88;;
12088;SDS011;6107;49.078;8.578;2023-07-31T10:50:29;5.78;;;2.90;;
12088;SDS011;6107;49.078;8.578;2023-07-31T10:52:58;7.03;;;2.70;;
12088;SDS011;6107;49.078;8.578;2023-07-31T10:55:26;7.32;;;2.65;;
12088;SDS011;6107;49.078;8.578;2023-07-31T10:57:53;5.03;;;2.70;;
12088;SDS011;6107;49.078;8.578;2023-07-31T11:00:20;6.07;;;2.33;;
12088;SDS011;6107;49.078;8.578;2023-07-31T11:03:00;7.55;;;2.85;;
12088;SDS011;6107;49.078;8.578;2023-07-31T11:05:43;8.05;;;2.75;;
12088;SDS011;6107;49.078;8.578;2023-07-31T11:08:23;6.22;;;2.42;;
12088;SDS011;6107;49.078;8.578;2023-07-31T11:10:51;5.82;;;2.70;;
12088;SDS011;6107;49.078;8.578;2023-07-31T11:13:26;6.22;;;2.67;;
12088;SDS011;6107;49.078;8.578;2023-07-31T11:15:51;8.20;;;2.85;;
12088;SDS011;6107;49.078;8.578;2023-07-31T11:18:17;5.32;;;2.90;;
12088;SDS011;6107;49.078;8.578;2023-07-31T11:20:46;5.88;;;3.28;;
12088;SDS011;6107;49.078;8.578;2023-07-31T11:23:12;6.63;;;2.85;;
12088;SDS011;6107;49.078;8.578;2023-07-31T11:25:40;4.82;;;3.03;;
12088;SDS011;6107;49.078;8.578;2023-07-31T11:28:08;6.38;;;2.92;;
12088;SDS011;6107;49.078;8.578;2023-07-31T11:30:38;8.38;;;2.88;;
12088;SDS011;6107;49.078;8.578;2023-07-31T11:33:05;4.22;;;2.65;;
12088;SDS011;6107;49.078;8.578;2023-07-31T11:35:35;3.90;;;2.17;;
12088;SDS011;6107;49.078;8.578;2023-07-31T11:38:02;4.50;;;2.53;;
12088;SDS011;6107;49.078;8.578;2023-07-31T11:40:28;6.43;;;2.88;;
12088;SDS011;6107;49.078;8.578;2023-07-31T11:42:55;5.38;;;2.75;;
12088;SDS011;6107;49.078;8.578;2023-07-31T11:45:24;5.35;;;2.55;;
12088;SDS011;6107;49.078;8.578;2023-07-31T11:47:51;6.00;;;2.88;;
12088;SDS011;6107;49.078;8.578;2023-07-31T11:50:17;5.95;;;2.70;;
12088;SDS011;6107;49.078;8.578;2023-07-31T11:52:44;9.73;;;2.80;;
12088;SDS011;6107;49.078;8.578;2023-07-31T11:55:11;5.70;;;2.33;;
12088;SDS011;6107;49.078;8.578;2023-07-31T11:57:38;5.97;;;3.00;;
12088;SDS011;6107;49.078;8.578;2023-07-31T12:00:06;6.85;;;2.92;;
12088;SDS011;6107;49.078;8.578;2023-07-31T12:02:34;5.28;;;2.92;;
12088;SDS011;6107;49.078;8.578;2023-07-31T12:05:00;6.20;;;2.72;;
12088;SDS011;6107;49.078;8.578;2023-07-31T12:07:27;6.22;;;2.58;;
12088;SDS011;6107;49.078;8.578;2023-07-31T12:09:55;5.97;;;2.45;;
12088;SDS011;6107;49.078;8.578;2023-07-31T12:12:22;11.48;;;3.20;;
12088;SDS011;6107;49.078;8.578;2023-07-31T12:14:48;6.22;;;2.70;;
12088;SDS011;6107;49.078;8.578;2023-07-31T12:17:16;4.68;;;2.70;;
12088;SDS011;6107;49.078;8.578;2023-07-31T12:19:43;5.93;;;2.80;;
12088;SDS011;6107;49.078;8.578;2023-07-31T12:22:13;7.45;;;2.42;;
12088;SDS011;6107;49.078;8.578;2023-07-31T12:24:43;5.05;;;3.05;;
12088;SDS011;6107;49.078;8.578;2023-07-31T12:27:10;5.78;;;2.53;;
12088;SDS011;6107;49.078;8.578;2023-07-31T12:29:41;6.32;;;2.70;;
12088;SDS011;6107;49.078;8.578;2023-07-31T12:32:19;6.88;;;2.80;;
12088;SDS011;6107;49.078;8.578;2023-07-31T12:34:48;5.13;;;2.45;;
12088;SDS011;6107;49.078;8.578;2023-07-31T12:37:14;5.15;;;2.60;;
12088;SDS011;6107;49.078;8.578;2023-07-31T12:39:40;5.97;;;2.50;;
12088;SDS011;6107;49.078;8.578;2023-07-31T12:42:05;6.25;;;2.60;;
12088;SDS011;6107;49.078;8.578;2023-07-31T12:44:31;6.43;;;2.63;;
12088;SDS011;6107;49.078;8.578;2023-07-31T12:46:57;4.93;;;2.30;;
12088;SDS011;6107;49.078;8.578;2023-07-31T12:49:22;5.07;;;2.47;;
12088;SDS011;6107;49.078;8.578;2023-07-31T12:51:48;5.32;;;2.55;;
12088;SDS011;6107;49.078;8.578;2023-07-31T12:54:14;4.55;;;2.28;;
12088;SDS011;6107;49.078;8.578;2023-07-31T12:56:39;8.13;;;2.72;;
12088;SDS011;6107;49.078;8.578;2023-07-31T12:59:05;7.82;;;2.90;;
12088;SDS011;6107;49.078;8.578;2023-07-31T13:01:31;6.38;;;2.75;;
12088;SDS011;6107;49.078;8.578;2023-07-31T13:03:57;5.63;;;2.45;;
12088;SDS011;6107;49.078;8.578;2023-07-31T13:06:23;6.80;;;2.80;;
12088;SDS011;6107;49.078;8.578;2023-07-31T13:08:49;3.38;;;2.40;;
12088;SDS011;6107;49.078;8.578;2023-07-31T13:11:15;6.47;;;2.72;;
12088;SDS011;6107;49.078;8.578;2023-07-31T13:13:40;6.40;;;2.60;;
12088;SDS011;6107;49.078;8.578;2023-07-31T13:16:06;3.45;;;2.45;;
12088;SDS011;6107;49.078;8.578;2023-07-31T13:18:32;5.68;;;2.80;;
12088;SDS011;6107;49.078;8.578;2023-07-31T13:20:57;5.13;;;2.40;;
12088;SDS011;6107;49.078;8.578;2023-07-31T13:23:23;5.65;;;2.92;;
12088;SDS011;6107;49.078;8.578;2023-07-31T13:25:48;5.20;;;2.20;;
12088;SDS011;6107;49.078;8.578;2023-07-31T13:28:14;5.07;;;2.90;;
12088;SDS011;6107;49.078;8.578;2023-07-31T13:30:39;7.38;;;2.38;;
12088;SDS011;6107;49.078;8.578;2023-07-31T13:33:05;5.57;;;2.50;;
12088;SDS011;6107;49.078;8.578;2023-07-31T13:35:30;5.53;;;2.42;;
12088;SDS011;6107;49.078;8.578;2023-07-31T13:37:56;6.90;;;2.88;;
12088;SDS011;6107;49.078;8.578;2023-07-31T13:40:22;4.38;;;2.60;;
12088;SDS011;6107;49.078;8.578;2023-07-31T13:42:48;4.57;;;2.40;;
12088;SDS011;6107;49.078;8.578;2023-07-31T13:45:13;3.65;;;2.35;;
12088;SDS011;6107;49.078;8.578;2023-07-31T13:47:39;5.53;;;2.55;;
12088;SDS011;6107;49.078;8.578;2023-07-31T13:50:05;4.22;;;2.10;;
12088;SDS011;6107;49.078;8.578;2023-07-31T13:52:31;7.18;;;2.65;;
12088;SDS011;6107;49.078;8.578;2023-07-31T13:54:56;5.72;;;3.00;;
12088;SDS011;6107;49.078;8.578;2023-07-31T13:57:22;5.90;;;2.80;;
12088;SDS011;6107;49.078;8.578;2023-07-31T13:59:48;4.35;;;2.45;;
12088;SDS011;6107;49.078;8.578;2023-07-31T14:02:14;7.47;;;2.70;;
12088;SDS011;6107;49.078;8.578;2023-07-31T14:04:40;8.68;;;2.63;;
12088;SDS011;6107;49.078;8.578;2023-07-31T14:07:06;6.07;;;2.60;;
12088;SDS011;6107;49.078;8.578;2023-07-31T14:09:32;6.45;;;2.67;;
12088;SDS011;6107;49.078;8.578;2023-07-31T14:11:57;4.78;;;2.65;;
12088;SDS011;6107;49.078;8.578;2023-07-31T14:14:23;5.93;;;2.30;;
12088;SDS011;6107;49.078;8.578;2023-07-31T14:16:49;4.53;;;2.72;;
12088;SDS011;6107;49.078;8.578;2023-07-31T14:19:14;4.72;;;2.42;;
12088;SDS011;6107;49.078;8.578;2023-07-31T14:21:40;5.35;;;2.50;;
12088;SDS011;6107;49.078;8.578;2023-07-31T14:24:05;4.25;;;2.70;;
12088;SDS011;6107;49.078;8.578;2023-07-31T14:26:31;4.68;;;2.70;;
12088;SDS011;6107;49.078;8.578;2023-07-31T14:28:56;4.72;;;2.47;;
12088;SDS011;6107;49.078;8.578;2023-07-31T14:31:22;5.47;;;2.50;;
12088;SDS011;6107;49.078;8.578;2023-07-31T14:33:49;5.07;;;2.40;;
12088;SDS011;6107;49.078;8.578;2023-07-31T14:36:15;5.88;;;2.42;;
12088;SDS011;6107;49.078;8.578;2023-07-31T14:38:40;6.72;;;2.60;;
12088;SDS011;6107;49.078;8.578;2023-07-31T14:41:06;5.70;;;2.47;;
12088;SDS011;6107;49.078;8.578;2023-07-31T14:43:31;6.10;;;2.50;;
12088;SDS011;6107;49.078;8.578;2023-07-31T14:45:57;4.97;;;2.53;;
12088;SDS011;6107;49.078;8.578;2023-07-31T14:48:24;5.80;;;2.80;;
12088;SDS011;6107;49.078;8.578;2023-07-31T14:50:51;7.85;;;2.65;;
12088;SDS011;6107;49.078;8.578;2023-07-31T14:53:16;6.00;;;2.67;;
12088;SDS011;6107;49.078;8.578;2023-07-31T14:55:42;4.70;;;2.30;;
12088;SDS011;6107;49.078;8.578;2023-07-31T14:58:08;6.03;;;2.95;;
12088;SDS011;6107;49.078;8.578;2023-07-31T15:00:35;10.35;;;2.70;;
12088;SDS011;6107;49.078;8.578;2023-07-31T15:03:02;5.38;;;2.38;;
12088;SDS011;6107;49.078;8.578;2023-07-31T15:05:28;5.97;;;2.78;;
12088;SDS011;6107;49.078;8.578;2023-07-31T15:07:54;6.10;;;2.70;;
12088;SDS011;6107;49.078;8.578;2023-07-31T15:10:19;4.88;;;2.50;;
12088;SDS011;6107;49.078;8.578;2023-07-31T15:12:45;5.57;;;2.75;;
12088;SDS011;6107;49.078;8.578;2023-07-31T15:15:11;6.43;;;2.42;;
12088;SDS011;6107;49.078;8.578;2023-07-31T15:17:36;4.63;;;2.63;;
12088;SDS011;6107;49.078;8.578;2023-07-31T15:20:02;3.85;;;2.53;;